Terminal Aerodrome Forecast
Issued by NWS

Home | Current Version | Previous Version | Text Only | Print | Product List | Glossary On
Versions: 1 2 3 4 5 6 7 8 9 10 11 12 13 14 15
000
FTUS46 KPDT 012300
TAFBDN
TAF
KBDN 012340Z 0200/0224 VRB05KT P6SM VCSH SCT130 BKN200
     FM020200 VRB04KT P6SM SCT150 BKN200
     FM020700 16004KT P6SM BKN140=

USA.gov is the U.S. government's official web portal to all federal, state and local government web resources and services.